createdAt,value
2019-03-16T00:02:12.963Z,82.98
2019-03-16T00:04:44.112Z,84.42
2019-03-16T00:07:12.397Z,85.40
2019-03-16T00:09:40.774Z,81.82
2019-03-16T00:12:09.088Z,82.03
2019-03-16T00:14:37.346Z,82.67
2019-03-16T00:17:05.637Z,83.17
2019-03-16T00:19:33.942Z,83.36
2019-03-16T00:22:02.232Z,82.29
2019-03-16T00:24:30.485Z,82.01
2019-03-16T00:26:58.764Z,80.30
2019-03-16T00:29:27.909Z,82.88
2019-03-16T00:31:56.219Z,81.55
2019-03-16T00:34:24.567Z,81.47
2019-03-16T00:36:52.833Z,83.12
2019-03-16T00:39:21.086Z,84.03
2019-03-16T00:41:49.341Z,81.36
2019-03-16T00:44:17.616Z,81.01
2019-03-16T00:46:45.952Z,82.19
2019-03-16T00:49:14.221Z,81.88
2019-03-16T00:51:42.503Z,83.69
2019-03-16T00:54:10.771Z,81.49
2019-03-16T00:56:39.099Z,83.36
2019-03-16T00:59:07.435Z,80.84
2019-03-16T01:01:35.715Z,82.06
2019-03-16T01:04:04.002Z,82.06
2019-03-16T01:06:32.266Z,82.17
2019-03-16T01:09:00.584Z,81.59
2019-03-16T01:11:28.855Z,83.65
2019-03-16T01:13:57.127Z,81.28
2019-03-16T01:16:25.481Z,80.72
2019-03-16T01:18:53.751Z,79.47
2019-03-16T01:21:22.019Z,80.41
2019-03-16T01:23:50.275Z,81.22
2019-03-16T01:26:18.536Z,81.12
2019-03-16T01:28:46.832Z,78.78
2019-03-16T01:31:15.058Z,81.48
2019-03-16T01:33:43.343Z,79.93
2019-03-16T01:36:11.609Z,80.96
2019-03-16T01:38:39.886Z,79.95
2019-03-16T01:41:08.135Z,79.86
2019-03-16T01:43:36.419Z,79.71
2019-03-16T01:46:04.684Z,79.88
2019-03-16T01:48:32.949Z,79.33
2019-03-16T01:51:01.202Z,79.13
2019-03-16T01:53:29.471Z,79.41
2019-03-16T01:55:57.742Z,77.73
2019-03-16T01:58:26.021Z,80.01
2019-03-16T02:00:54.288Z,80.33
2019-03-16T02:03:22.540Z,77.21
2019-03-16T02:05:50.889Z,77.90
2019-03-16T02:08:19.214Z,77.44
2019-03-16T02:10:47.490Z,78.30
2019-03-16T02:13:15.759Z,78.79
2019-03-16T02:15:44.027Z,77.20
2019-03-16T02:18:12.288Z,78.87
2019-03-16T02:20:40.563Z,79.65
2019-03-16T02:23:08.859Z,77.55
2019-03-16T02:25:37.131Z,79.68
2019-03-16T02:28:05.387Z,78.50
2019-03-16T02:30:33.660Z,77.98
2019-03-16T02:33:12.773Z,79.01
2019-03-16T02:35:31.929Z,79.50
2019-03-16T02:38:00.216Z,77.62
2019-03-16T02:40:28.468Z,78.39
2019-03-16T02:42:56.740Z,78.94
2019-03-16T02:45:25.024Z,78.14
2019-03-16T02:47:53.287Z,76.75
2019-03-16T02:50:21.584Z,79.33
2019-03-16T02:52:50.341Z,77.66
2019-03-16T02:55:18.687Z,78.87
2019-03-16T02:57:46.948Z,79.02
2019-03-16T03:00:15.205Z,76.62
2019-03-16T03:02:43.559Z,79.07
2019-03-16T03:05:11.908Z,78.30
2019-03-16T03:07:40.223Z,78.79
2019-03-16T03:10:13.756Z,78.92
2019-03-16T03:12:42.021Z,77.68
2019-03-16T03:15:10.290Z,78.14
2019-03-16T03:17:38.546Z,77.75
2019-03-16T03:20:08.868Z,76.48
2019-03-16T03:22:37.140Z,76.30
2019-03-16T03:25:05.851Z,76.48
2019-03-16T03:27:34.137Z,76.73
2019-03-16T03:30:02.462Z,74.82
2019-03-16T03:32:30.686Z,77.22
2019-03-16T03:34:58.958Z,77.34
2019-03-16T03:37:27.196Z,76.13
2019-03-16T03:39:55.544Z,74.81
2019-03-16T03:42:23.838Z,75.26
2019-03-16T03:44:52.353Z,75.29
2019-03-16T03:47:20.650Z,74.72
2019-03-16T03:49:48.912Z,74.00
2019-03-16T03:52:17.192Z,76.94
2019-03-16T03:54:45.487Z,75.95
2019-03-16T03:57:13.721Z,74.19
2019-03-16T03:59:42.061Z,74.11
2019-03-16T04:02:10.324Z,74.40
2019-03-16T04:04:38.692Z,77.91
2019-03-16T04:07:06.936Z,76.02
2019-03-16T04:09:35.209Z,75.09
2019-03-16T04:12:05.064Z,75.82
2019-03-16T04:14:33.363Z,77.91
2019-03-16T04:17:02.986Z,74.67
2019-03-16T04:19:31.255Z,74.97
2019-03-16T04:21:59.531Z,76.86
2019-03-16T04:24:27.803Z,77.74
2019-03-16T04:26:56.068Z,76.78
2019-03-16T04:29:24.316Z,78.23
2019-03-16T04:31:52.574Z,77.89
2019-03-16T04:34:29.149Z,77.50
2019-03-16T04:36:50.811Z,75.57
2019-03-16T04:39:19.075Z,76.31
2019-03-16T04:41:47.343Z,77.15
2019-03-16T04:44:15.625Z,77.68
2019-03-16T04:46:43.894Z,77.62
2019-03-16T04:49:12.168Z,78.16
2019-03-16T04:51:40.446Z,78.09
2019-03-16T04:54:08.720Z,77.03
2019-03-16T04:56:37.002Z,76.11
2019-03-16T04:59:07.803Z,77.07
2019-03-16T05:01:35.276Z,75.74
2019-03-16T05:04:03.587Z,75.20
2019-03-16T05:06:32.026Z,75.74
2019-03-16T05:09:00.286Z,76.32
2019-03-16T05:11:28.552Z,76.01
2019-03-16T05:13:56.803Z,74.56
2019-03-16T05:16:25.080Z,74.89
2019-03-16T05:18:53.336Z,74.75
2019-03-16T05:21:21.644Z,74.67
2019-03-16T05:23:49.892Z,74.81
2019-03-16T05:26:18.160Z,75.29
2019-03-16T05:28:46.451Z,72.45
2019-03-16T05:31:15.884Z,73.45
2019-03-16T05:33:44.157Z,74.26
2019-03-16T05:36:12.512Z,75.09
2019-03-16T05:38:40.752Z,76.02
2019-03-16T05:41:09.140Z,77.47
2019-03-16T05:43:37.417Z,75.97
2019-03-16T05:46:05.693Z,73.81
2019-03-16T05:48:33.975Z,75.86
2019-03-16T05:51:02.226Z,76.82
2019-03-16T05:53:30.476Z,76.27
2019-03-16T05:55:58.767Z,76.09
2019-03-16T05:58:27.021Z,74.93
2019-03-16T06:00:55.284Z,76.33
2019-03-16T06:03:23.561Z,75.09
2019-03-16T06:05:51.871Z,75.75
2019-03-16T06:08:20.132Z,75.63
2019-03-16T06:10:48.412Z,75.47
2019-03-16T06:13:16.679Z,72.91
2019-03-16T06:15:44.939Z,72.46
2019-03-16T06:18:13.384Z,74.66
2019-03-16T06:20:41.664Z,74.73
2019-03-16T06:23:09.934Z,74.20
2019-03-16T06:25:38.222Z,77.57
2019-03-16T06:28:06.507Z,75.19
2019-03-16T06:30:34.849Z,75.23
2019-03-16T06:33:03.120Z,78.08
2019-03-16T06:35:31.400Z,79.31
2019-03-16T06:37:59.671Z,78.61
2019-03-16T06:40:27.948Z,81.11
2019-03-16T06:42:56.196Z,84.14
2019-03-16T06:45:24.450Z,80.24
2019-03-16T06:47:54.675Z,83.07
2019-03-16T06:50:22.720Z,82.93
2019-03-16T06:52:51.012Z,82.98
2019-03-16T06:55:19.309Z,84.38
2019-03-16T06:57:47.598Z,82.60
2019-03-16T07:00:16.969Z,85.71
2019-03-16T07:02:45.235Z,86.16
2019-03-16T07:05:14.050Z,82.24
2019-03-16T07:07:42.464Z,83.37
2019-03-16T07:10:12.469Z,85.92
2019-03-16T07:12:40.707Z,85.07
2019-03-16T07:15:10.734Z,85.38
2019-03-16T07:17:39.000Z,84.64
2019-03-16T07:20:09.695Z,83.75
2019-03-16T07:22:37.960Z,85.58
2019-03-16T07:25:07.072Z,82.49
2019-03-16T07:27:35.335Z,82.68
2019-03-16T07:30:05.428Z,81.79
2019-03-16T07:32:33.695Z,81.48
2019-03-16T07:35:01.962Z,81.83
2019-03-16T07:37:30.230Z,84.60
2019-03-16T07:39:58.498Z,83.04
2019-03-16T07:42:26.800Z,81.10
2019-03-16T07:45:07.493Z,83.67
2019-03-16T07:47:25.088Z,81.25
2019-03-16T07:49:53.356Z,81.16
2019-03-16T07:52:21.616Z,80.89
2019-03-16T07:54:49.890Z,79.61
2019-03-16T07:57:18.259Z,80.17
2019-03-16T07:59:46.518Z,79.66
2019-03-16T08:02:14.776Z,79.15
2019-03-16T08:04:43.611Z,78.38
2019-03-16T08:07:12.078Z,77.14
2019-03-16T08:09:40.340Z,80.36
2019-03-16T08:12:08.604Z,80.73
2019-03-16T08:14:36.865Z,77.31
2019-03-16T08:17:05.124Z,77.02
2019-03-16T08:19:33.406Z,78.27
2019-03-16T08:22:01.684Z,78.24
2019-03-16T08:24:30.518Z,77.78
2019-03-16T08:26:58.789Z,78.00
2019-03-16T08:29:27.056Z,77.16
2019-03-16T08:31:55.324Z,79.15
2019-03-16T08:34:23.584Z,75.14
2019-03-16T08:36:51.840Z,77.35
2019-03-16T08:39:20.117Z,76.83
2019-03-16T08:41:48.387Z,76.63
2019-03-16T08:44:16.750Z,76.17
2019-03-16T08:46:45.078Z,75.04
2019-03-16T08:49:13.372Z,76.53
2019-03-16T08:51:41.621Z,76.98
2019-03-16T08:54:09.882Z,76.33
2019-03-16T08:56:38.145Z,76.63
2019-03-16T08:59:06.398Z,78.07
2019-03-16T09:01:34.685Z,76.21
2019-03-16T09:04:02.973Z,77.06
2019-03-16T09:06:31.327Z,77.58
2019-03-16T09:08:59.678Z,76.03
2019-03-16T09:11:27.928Z,74.98
2019-03-16T09:13:56.194Z,74.09
2019-03-16T09:16:24.480Z,72.73
2019-03-16T09:18:52.750Z,76.13
2019-03-16T09:21:21.197Z,77.57
2019-03-16T09:23:49.472Z,73.98
2019-03-16T09:26:17.754Z,71.86
2019-03-16T09:28:46.039Z,74.67
2019-03-16T09:31:14.361Z,75.14
2019-03-16T09:33:42.642Z,72.26
2019-03-16T09:36:10.935Z,71.23
2019-03-16T09:38:39.236Z,72.57
2019-03-16T09:41:07.484Z,71.29
2019-03-16T09:43:35.748Z,73.98
2019-03-16T09:46:03.999Z,71.28
2019-03-16T09:48:32.354Z,71.90
2019-03-16T09:51:00.614Z,72.13
2019-03-16T09:53:28.892Z,70.41
2019-03-16T09:55:57.169Z,73.75
2019-03-16T09:58:31.041Z,71.95
2019-03-16T10:00:55.431Z,73.40
2019-03-16T10:03:23.698Z,73.23
2019-03-16T10:05:51.979Z,71.65
2019-03-16T10:08:20.241Z,71.18
2019-03-16T10:10:48.498Z,71.10
2019-03-16T10:13:16.790Z,71.29
2019-03-16T10:15:45.047Z,71.33
2019-03-16T10:18:13.315Z,72.02
2019-03-16T10:20:41.623Z,73.30
2019-03-16T10:23:09.877Z,70.90
2019-03-16T10:25:38.198Z,70.63
2019-03-16T10:28:06.487Z,71.71
2019-03-16T10:30:34.759Z,71.07
2019-03-16T10:33:03.040Z,72.78
2019-03-16T10:35:31.304Z,72.28
2019-03-16T10:37:59.597Z,71.25
2019-03-16T10:40:27.870Z,70.56
2019-03-16T10:42:56.111Z,72.97
2019-03-16T10:45:24.378Z,71.16
2019-03-16T10:47:52.662Z,71.28
2019-03-16T10:50:20.919Z,72.81
2019-03-16T10:52:49.164Z,74.34
2019-03-16T10:55:17.439Z,73.54
2019-03-16T10:57:45.711Z,74.08
2019-03-16T11:00:15.542Z,74.93
2019-03-16T11:02:43.810Z,73.56
2019-03-16T11:05:12.169Z,74.98
2019-03-16T11:07:40.451Z,74.19
2019-03-16T11:10:12.816Z,79.71
2019-03-16T11:12:41.082Z,76.83
2019-03-16T11:15:13.073Z,77.50
2019-03-16T11:17:41.373Z,78.39
2019-03-16T11:20:14.662Z,80.18
2019-03-16T11:22:42.972Z,82.68
2019-03-16T11:25:11.234Z,79.83
2019-03-16T11:27:39.496Z,76.57
2019-03-16T11:30:12.882Z,77.45
2019-03-16T11:32:41.148Z,79.21
2019-03-16T11:35:10.956Z,82.40
2019-03-16T11:37:39.214Z,82.68
2019-03-16T11:40:15.289Z,85.96
2019-03-16T11:42:43.574Z,85.43
2019-03-16T11:45:12.484Z,81.38
2019-03-16T11:47:40.739Z,83.40
2019-03-16T11:50:10.942Z,79.77
2019-03-16T11:52:39.267Z,77.83
2019-03-16T11:55:08.891Z,77.21
2019-03-16T11:57:40.868Z,76.16
2019-03-16T12:00:11.499Z,78.28
2019-03-16T12:02:39.744Z,74.65
2019-03-16T12:05:10.223Z,74.93
2019-03-16T12:07:38.589Z,73.24
2019-03-16T12:10:11.469Z,74.35
2019-03-16T12:12:39.733Z,72.72
2019-03-16T12:15:12.136Z,71.68
2019-03-16T12:17:40.421Z,72.84
2019-03-16T12:20:18.432Z,72.53
2019-03-16T12:22:47.063Z,69.71
2019-03-16T12:25:15.322Z,71.20
2019-03-16T12:27:43.667Z,68.57
2019-03-16T12:30:13.684Z,69.04
2019-03-16T12:32:41.943Z,70.38
2019-03-16T12:35:10.297Z,69.31
2019-03-16T12:37:39.546Z,70.37
2019-03-16T12:40:10.586Z,69.30
2019-03-16T12:42:38.886Z,71.77
2019-03-16T12:45:12.717Z,69.36
2019-03-16T12:47:41.030Z,70.98
2019-03-16T12:50:09.822Z,71.98
2019-03-16T12:52:38.205Z,69.13
2019-03-16T12:55:08.787Z,66.84
2019-03-16T12:57:37.136Z,69.19
2019-03-16T13:00:13.633Z,68.63
2019-03-16T13:02:41.915Z,66.33
2019-03-16T13:05:10.258Z,65.51
2019-03-16T13:07:38.521Z,64.43
2019-03-16T13:10:10.737Z,64.65
2019-03-16T13:12:39.244Z,64.18
2019-03-16T13:15:08.794Z,64.51
2019-03-16T13:17:37.116Z,64.07
2019-03-16T13:20:11.345Z,64.15
2019-03-16T13:22:39.646Z,64.76
2019-03-16T13:25:12.131Z,65.85
2019-03-16T13:27:40.420Z,65.87
2019-03-16T13:30:14.114Z,64.24
2019-03-16T13:32:42.440Z,63.76
2019-03-16T13:35:11.150Z,64.98
2019-03-16T13:37:39.454Z,65.35
2019-03-16T13:40:10.745Z,64.36
2019-03-16T13:42:39.075Z,63.91
2019-03-16T13:45:08.939Z,62.09
2019-03-16T13:47:37.227Z,62.82
2019-03-16T13:50:08.997Z,61.63
2019-03-16T13:52:37.457Z,61.10
2019-03-16T13:55:06.948Z,61.28
2019-03-16T13:57:35.235Z,60.91
2019-03-16T14:00:11.805Z,61.85
2019-03-16T14:02:35.308Z,60.40
2019-03-16T14:05:03.944Z,61.69
2019-03-16T14:07:32.513Z,63.53
2019-03-16T14:10:00.776Z,63.43
2019-03-16T14:12:29.033Z,64.67
2019-03-16T14:14:57.692Z,64.87
2019-03-16T14:17:25.942Z,63.67
2019-03-16T14:19:54.222Z,63.60
2019-03-16T14:22:22.505Z,63.98
2019-03-16T14:24:50.785Z,62.76
2019-03-16T14:27:19.067Z,62.17
2019-03-16T14:29:47.339Z,62.54
2019-03-16T14:32:15.702Z,62.71
2019-03-16T14:34:44.144Z,61.33
2019-03-16T14:37:12.410Z,63.26
2019-03-16T14:39:40.671Z,62.45
2019-03-16T14:42:09.237Z,62.03
2019-03-16T14:44:37.488Z,62.41
2019-03-16T14:47:05.971Z,64.06
2019-03-16T14:49:34.230Z,62.51
2019-03-16T14:52:02.889Z,63.56
2019-03-16T14:54:31.182Z,64.76
2019-03-16T14:57:01.831Z,63.65
2019-03-16T14:59:29.444Z,63.72
2019-03-16T15:01:57.718Z,61.70
2019-03-16T15:04:25.989Z,60.89
2019-03-16T15:06:54.299Z,60.39
2019-03-16T15:09:22.576Z,61.29
2019-03-16T15:11:50.854Z,61.79
2019-03-16T15:14:21.769Z,60.72
2019-03-16T15:16:49.134Z,60.13
2019-03-16T15:19:17.397Z,59.72
2019-03-16T15:21:45.678Z,61.28
2019-03-16T15:24:14.026Z,60.96
2019-03-16T15:26:42.288Z,61.10
2019-03-16T15:29:10.556Z,61.06
2019-03-16T15:31:38.810Z,60.82
2019-03-16T15:34:07.084Z,59.98
2019-03-16T15:36:35.360Z,60.93
2019-03-16T15:39:06.020Z,60.96
2019-03-16T15:41:34.325Z,59.63
2019-03-16T15:44:02.651Z,58.78
2019-03-16T15:46:30.899Z,59.11
2019-03-16T15:48:59.174Z,59.70
2019-03-16T15:51:27.436Z,59.31
2019-03-16T15:53:55.708Z,59.48
2019-03-16T15:56:24.058Z,59.16
2019-03-16T15:58:52.314Z,58.71
2019-03-16T16:01:20.583Z,60.86
2019-03-16T16:03:48.831Z,60.87
2019-03-16T16:06:17.178Z,62.20
2019-03-16T16:08:45.440Z,61.16
2019-03-16T16:11:13.735Z,60.63
2019-03-16T16:13:41.999Z,61.06
2019-03-16T16:16:10.260Z,60.11
2019-03-16T16:18:38.619Z,60.85
2019-03-16T16:21:07.120Z,61.23
2019-03-16T16:23:35.379Z,61.20
2019-03-16T16:26:03.876Z,60.05
2019-03-16T16:28:32.084Z,59.72
2019-03-16T16:31:00.358Z,58.07
2019-03-16T16:33:28.634Z,59.11
2019-03-16T16:35:56.937Z,61.71
2019-03-16T16:38:25.290Z,60.57
2019-03-16T16:40:53.560Z,58.68
2019-03-16T16:43:21.852Z,58.88
2019-03-16T16:45:50.189Z,60.01
2019-03-16T16:48:18.546Z,60.53
2019-03-16T16:50:46.819Z,60.53
2019-03-16T16:53:15.108Z,58.91
2019-03-16T16:55:43.379Z,59.32
2019-03-16T16:58:11.675Z,59.47
2019-03-16T17:00:39.916Z,60.32
2019-03-16T17:03:08.198Z,59.91
2019-03-16T17:05:36.486Z,58.92
2019-03-16T17:08:04.848Z,59.97
2019-03-16T17:10:33.113Z,61.99
2019-03-16T17:13:01.414Z,62.10
2019-03-16T17:15:29.756Z,62.27
2019-03-16T17:17:58.075Z,62.85
2019-03-16T17:20:26.325Z,62.25
2019-03-16T17:22:54.690Z,61.74
2019-03-16T17:25:23.019Z,62.88
2019-03-16T17:27:54.212Z,63.13
2019-03-16T17:30:34.172Z,61.79
2019-03-16T17:33:02.448Z,62.35
2019-03-16T17:35:30.727Z,61.37
2019-03-16T17:37:59.013Z,61.09
2019-03-16T17:40:27.284Z,60.24
2019-03-16T17:42:55.561Z,60.57
2019-03-16T17:45:23.825Z,61.33
2019-03-16T17:47:52.120Z,62.09
2019-03-16T17:50:20.374Z,61.42
2019-03-16T17:52:48.653Z,59.76
2019-03-16T17:55:18.736Z,60.50
2019-03-16T17:57:47.053Z,63.56
2019-03-16T18:00:16.448Z,62.51
2019-03-16T18:02:51.193Z,61.55
2019-03-16T18:05:14.779Z,62.17
2019-03-16T18:07:43.289Z,61.30
2019-03-16T18:10:15.514Z,62.01
2019-03-16T18:12:43.875Z,62.00
2019-03-16T18:15:17.075Z,62.01
2019-03-16T18:17:45.370Z,60.57
2019-03-16T18:20:17.462Z,59.58
2019-03-16T18:22:45.185Z,61.10
2019-03-16T18:25:13.872Z,60.24
2019-03-16T18:27:42.181Z,59.88
2019-03-16T18:30:18.330Z,61.21
2019-03-16T18:32:46.587Z,60.97
2019-03-16T18:35:14.979Z,60.31
2019-03-16T18:37:43.280Z,61.32
2019-03-16T18:40:13.171Z,60.52
2019-03-16T18:42:41.478Z,61.59
2019-03-16T18:45:18.420Z,61.52
2019-03-16T18:47:46.698Z,60.69
2019-03-16T18:50:14.971Z,62.51
2019-03-16T18:52:43.246Z,62.82
2019-03-16T18:55:12.967Z,62.71
2019-03-16T18:57:41.219Z,64.66
2019-03-16T19:00:15.376Z,63.17
2019-03-16T19:02:43.671Z,62.57
2019-03-16T19:05:12.023Z,63.42
2019-03-16T19:07:40.329Z,62.94
2019-03-16T19:10:16.575Z,63.96
2019-03-16T19:12:45.403Z,63.86
2019-03-16T19:15:19.887Z,63.28
2019-03-16T19:17:58.099Z,64.73
2019-03-16T19:20:18.278Z,63.16
2019-03-16T19:22:46.699Z,64.92
2019-03-16T19:25:21.994Z,65.70
2019-03-16T19:27:50.262Z,64.45
2019-03-16T19:30:18.919Z,65.06
2019-03-16T19:32:47.276Z,65.98
2019-03-16T19:35:15.516Z,66.67
2019-03-16T19:37:43.857Z,63.79
2019-03-16T19:40:17.232Z,63.84
2019-03-16T19:42:46.969Z,64.81
2019-03-16T19:45:15.604Z,65.77
2019-03-16T19:47:43.871Z,66.55
2019-03-16T19:50:15.808Z,66.39
2019-03-16T19:52:44.347Z,65.83
2019-03-16T19:55:13.375Z,67.12
2019-03-16T19:57:41.676Z,67.14
2019-03-16T20:00:17.083Z,67.07
2019-03-16T20:02:51.073Z,66.75
2019-03-16T20:05:15.478Z,66.27
2019-03-16T20:07:43.750Z,67.54
2019-03-16T20:10:13.754Z,67.37
2019-03-16T20:12:42.070Z,67.76
2019-03-16T20:15:12.913Z,66.03
2019-03-16T20:17:41.181Z,66.71
2019-03-16T20:20:13.727Z,67.36
2019-03-16T20:22:42.003Z,67.71
2019-03-16T20:25:10.613Z,67.70
2019-03-16T20:27:38.883Z,67.94
2019-03-16T20:30:12.515Z,67.85
2019-03-16T20:32:40.818Z,66.49
2019-03-16T20:35:09.793Z,66.42
2019-03-16T20:37:38.077Z,66.34
2019-03-16T20:40:18.728Z,68.10
2019-03-16T20:42:47.174Z,66.96
2019-03-16T20:45:15.742Z,67.38
2019-03-16T20:47:44.026Z,66.57
2019-03-16T20:50:14.507Z,66.04
2019-03-16T20:52:42.879Z,67.86
2019-03-16T20:55:11.420Z,66.99
2019-03-16T20:57:39.702Z,68.49
2019-03-16T21:00:13.039Z,67.06
2019-03-16T21:02:41.411Z,64.62
2019-03-16T21:05:10.536Z,66.45
2019-03-16T21:07:38.820Z,66.62
2019-03-16T21:10:11.526Z,66.09
2019-03-16T21:12:39.842Z,65.25
2019-03-16T21:15:16.119Z,66.87
2019-03-16T21:17:44.444Z,66.16
2019-03-16T21:20:17.662Z,67.82
2019-03-16T21:22:45.995Z,67.48
2019-03-16T21:25:15.207Z,67.45
2019-03-16T21:27:43.471Z,68.23
2019-03-16T21:30:22.222Z,66.34
2019-03-16T21:32:50.596Z,67.76
2019-03-16T21:35:18.865Z,67.83
2019-03-16T21:37:47.123Z,69.40
2019-03-16T21:40:15.767Z,66.91
2019-03-16T21:42:44.024Z,68.35
2019-03-16T21:45:14.017Z,68.32
2019-03-16T21:47:42.235Z,67.51
2019-03-16T21:50:14.839Z,68.42
2019-03-16T21:52:44.873Z,68.58
2019-03-16T21:55:14.202Z,68.73
2019-03-16T21:57:42.534Z,68.29
2019-03-16T22:00:13.722Z,68.60
2019-03-16T22:02:42.004Z,68.31
2019-03-16T22:05:10.551Z,68.42
2019-03-16T22:07:38.832Z,68.88
2019-03-16T22:10:10.116Z,68.07
2019-03-16T22:12:38.475Z,70.11
2019-03-16T22:15:09.548Z,69.58
2019-03-16T22:17:37.854Z,69.87
2019-03-16T22:20:09.461Z,70.35
2019-03-16T22:22:37.754Z,69.32
2019-03-16T22:25:07.681Z,70.79
2019-03-16T22:27:36.050Z,70.00
2019-03-16T22:30:06.752Z,70.79
2019-03-16T22:32:35.147Z,70.94
2019-03-16T22:35:03.718Z,69.91
2019-03-16T22:37:31.976Z,69.97
2019-03-16T22:40:00.394Z,70.69
2019-03-16T22:42:28.621Z,70.62
2019-03-16T22:44:56.913Z,69.67
2019-03-16T22:47:25.166Z,69.58
2019-03-16T22:49:53.459Z,70.01
2019-03-16T22:52:21.758Z,68.78
2019-03-16T22:54:50.335Z,69.24
2019-03-16T22:57:18.614Z,69.89
2019-03-16T22:59:46.868Z,69.84
2019-03-16T23:02:15.240Z,70.28
2019-03-16T23:04:43.519Z,69.75
2019-03-16T23:07:11.776Z,69.50
2019-03-16T23:09:40.067Z,69.18
2019-03-16T23:12:08.316Z,68.06
2019-03-16T23:14:36.715Z,68.39
2019-03-16T23:17:05.022Z,69.30
2019-03-16T23:19:33.323Z,69.27
2019-03-16T23:22:01.602Z,69.78
2019-03-16T23:24:29.867Z,68.85
2019-03-16T23:26:58.122Z,68.92
2019-03-16T23:29:26.425Z,68.29
2019-03-16T23:31:54.694Z,67.91
2019-03-16T23:34:22.972Z,67.95
2019-03-16T23:36:51.244Z,67.92
2019-03-16T23:39:19.509Z,66.98
2019-03-16T23:41:47.784Z,67.01
2019-03-16T23:44:16.083Z,67.03
2019-03-16T23:46:44.408Z,67.61
2019-03-16T23:49:12.632Z,66.53
2019-03-16T23:51:40.913Z,66.71
2019-03-16T23:54:09.180Z,65.29
2019-03-16T23:56:37.467Z,65.88
2019-03-16T23:59:05.735Z,65.36
